Time;durP1;ratioP1;P1;durP2;ratioP2;P2;SDS_P1;SDS_P2;PMS_P1;PMS_P2;Temp;Humidity;BMP_temperature;BMP_pressure;BME280_temperature;BME280_humidity;BME280_pressure;Samples;Min_cycle;Max_cycle;Signal;HPM_P1;HPM_P2
2021/09/13 00:01:01;;;;;;;;;7.25;7.25;;;;;;;;4976545;28;54364;-54
2021/09/13 00:03:27;;;;;;;;;11.00;11.00;;;;;;;;4991433;28;51043;-54
2021/09/13 00:05:52;;;;;;;;;8.00;8.00;;;;;;;;4991728;28;51174;-53
2021/09/13 00:08:17;;;;;;;;;8.33;7.67;;;;;;;;4991678;28;51382;-53
2021/09/13 00:10:43;;;;;;;;;8.75;8.75;;;;;;;;4992754;28;50943;-54
2021/09/13 00:13:08;;;;;;;;;10.00;9.00;;;;;;;;4991078;28;51431;-54
2021/09/13 00:15:33;;;;;;;;;9.00;8.67;;;;;;;;4986980;28;51934;-53
2021/09/13 00:17:58;;;;;;;;;9.67;9.00;;;;;;;;4992653;28;51133;-52
2021/09/13 00:20:24;;;;;;;;;10.00;8.67;;;;;;;;4992391;28;51076;-54
2021/09/13 00:22:49;;;;;;;;;11.00;8.67;;;;;;;;4991334;28;50969;-52
2021/09/13 00:25:14;;;;;;;;;9.25;8.50;;;;;;;;4991670;28;51266;-53
2021/09/13 00:27:39;;;;;;;;;10.75;10.75;;;;;;;;4991031;28;51001;-51
2021/09/13 00:30:06;;;;;;;;;9.50;9.25;;;;;;;;4992532;28;51237;-54
2021/09/13 00:32:31;;;;;;;;;9.00;9.00;;;;;;;;4975890;28;50848;-54
2021/09/13 00:34:56;;;;;;;;;9.00;9.00;;;;;;;;4990423;28;53094;-53
2021/09/13 00:37:21;;;;;;;;;8.33;8.33;;;;;;;;4994422;28;50993;-53
2021/09/13 00:39:47;;;;;;;;;10.33;10.33;;;;;;;;4995798;28;51266;-53
2021/09/13 00:42:12;;;;;;;;;11.33;10.67;;;;;;;;4994181;28;51148;-54
2021/09/13 00:44:37;;;;;;;;;9.67;8.00;;;;;;;;4994160;28;52067;-54
2021/09/13 00:47:02;;;;;;;;;10.67;9.33;;;;;;;;4995904;28;51053;-54
2021/09/13 00:49:28;;;;;;;;;10.25;8.25;;;;;;;;4986927;28;51139;-54
2021/09/13 00:51:53;;;;;;;;;10.67;10.67;;;;;;;;4987104;28;51137;-54
2021/09/13 00:54:18;;;;;;;;;8.67;8.67;;;;;;;;4994426;28;51104;-53
2021/09/13 00:56:44;;;;;;;;;12.50;11.75;;;;;;;;4995384;28;50822;-53
2021/09/13 00:59:10;;;;;;;;;9.00;9.00;;;;;;;;4995574;28;51132;-54
2021/09/13 01:01:35;;;;;;;;;8.67;8.00;;;;;;;;4994541;28;51251;-54
2021/09/13 01:04:00;;;;;;;;;9.67;9.67;;;;;;;;4995188;28;51957;-54
2021/09/13 01:06:26;;;;;;;;;9.33;8.33;;;;;;;;4989152;28;51044;-53
2021/09/13 01:08:52;;;;;;;;;11.50;11.00;;;;;;;;4995509;28;50980;-53
2021/09/13 01:11:17;;;;;;;;;12.00;11.33;;;;;;;;4995539;28;51073;-53
2021/09/13 01:13:43;;;;;;;;;11.00;10.33;;;;;;;;4993989;28;51746;-54
2021/09/13 01:16:08;;;;;;;;;9.33;9.00;;;;;;;;4995272;28;50938;-53
2021/09/13 01:18:33;;;;;;;;;9.33;8.67;;;;;;;;4995248;28;51137;-53
2021/09/13 01:20:59;;;;;;;;;10.00;9.67;;;;;;;;4995165;28;51272;-54
2021/09/13 01:23:29;;;;;;;;;10.67;9.33;;;;;;;;4988601;28;52819;-54
2021/09/13 01:25:54;;;;;;;;;10.00;9.67;;;;;;;;4995024;28;51006;-52
2021/09/13 01:28:19;;;;;;;;;11.00;9.33;;;;;;;;4992491;28;51299;-53
2021/09/13 01:30:45;;;;;;;;;10.33;9.33;;;;;;;;4994557;28;51235;-54
2021/09/13 01:33:10;;;;;;;;;11.50;10.75;;;;;;;;4993152;28;51821;-52
2021/09/13 01:35:35;;;;;;;;;11.00;11.00;;;;;;;;4994451;28;51028;-54
2021/09/13 01:38:00;;;;;;;;;11.75;9.50;;;;;;;;4994764;28;50914;-54
2021/09/13 01:40:26;;;;;;;;;10.33;9.67;;;;;;;;4984310;28;51227;-53
2021/09/13 01:42:51;;;;;;;;;10.67;10.67;;;;;;;;4992580;28;52347;-54
2021/09/13 01:45:16;;;;;;;;;11.67;11.33;;;;;;;;4994828;28;51051;-54
2021/09/13 01:47:42;;;;;;;;;11.00;10.00;;;;;;;;4993432;28;51107;-53
2021/09/13 01:50:07;;;;;;;;;12.25;11.50;;;;;;;;4994576;28;51183;-54
2021/09/13 01:52:32;;;;;;;;;9.33;9.00;;;;;;;;4993643;28;51638;-54
2021/09/13 01:54:57;;;;;;;;;9.67;9.67;;;;;;;;4993055;28;51160;-53
2021/09/13 01:57:22;;;;;;;;;10.67;10.33;;;;;;;;4987021;28;50857;-54
2021/09/13 01:59:48;;;;;;;;;8.00;8.00;;;;;;;;4994854;28;50988;-54
2021/09/13 02:02:13;;;;;;;;;10.33;9.33;;;;;;;;4992629;28;51031;-53
2021/09/13 02:04:38;;;;;;;;;11.00;10.67;;;;;;;;4993855;28;51147;-54
2021/09/13 02:07:03;;;;;;;;;9.00;8.33;;;;;;;;4994278;28;51086;-54
2021/09/13 02:09:28;;;;;;;;;9.00;9.00;;;;;;;;4976370;28;51176;-57
2021/09/13 02:11:54;;;;;;;;;8.67;8.67;;;;;;;;4987830;28;51291;-54
2021/09/13 02:14:19;;;;;;;;;8.67;8.00;;;;;;;;4994435;28;51049;-54
2021/09/13 02:16:44;;;;;;;;;10.75;10.75;;;;;;;;4976755;28;50977;-56
2021/09/13 02:19:09;;;;;;;;;9.00;9.00;;;;;;;;4994464;28;50935;-52
2021/09/13 02:21:35;;;;;;;;;9.25;9.00;;;;;;;;4975043;28;54219;-51
2021/09/13 02:24:00;;;;;;;;;10.00;9.00;;;;;;;;4994241;28;50860;-53
2021/09/13 02:26:25;;;;;;;;;10.00;10.00;;;;;;;;4994255;28;51035;-53
2021/09/13 02:28:50;;;;;;;;;11.00;11.00;;;;;;;;4986215;28;51238;-54
2021/09/13 02:31:15;;;;;;;;;12.00;11.00;;;;;;;;4992937;28;52007;-54
2021/09/13 02:33:41;;;;;;;;;9.00;9.00;;;;;;;;4992873;28;51162;-54
2021/09/13 02:36:06;;;;;;;;;8.00;8.00;;;;;;;;4992935;28;51131;-52
2021/09/13 02:38:31;;;;;;;;;9.67;9.00;;;;;;;;4992706;28;51323;-54
2021/09/13 02:40:58;;;;;;;;;9.50;9.00;;;;;;;;4993569;28;51917;-53
2021/09/13 02:43:23;;;;;;;;;11.75;11.00;;;;;;;;4993000;28;51155;-53
2021/09/13 02:45:48;;;;;;;;;9.00;8.25;;;;;;;;4987760;28;51648;-52
2021/09/13 02:48:13;;;;;;;;;9.75;9.75;;;;;;;;4994394;28;51091;-53
2021/09/13 02:50:39;;;;;;;;;10.00;10.00;;;;;;;;4993329;28;51228;-52
2021/09/13 02:53:04;;;;;;;;;11.00;11.00;;;;;;;;4975505;28;50922;-54
2021/09/13 02:55:29;;;;;;;;;11.50;11.00;;;;;;;;4993731;28;51065;-54
2021/09/13 02:57:54;;;;;;;;;8.25;8.25;;;;;;;;4993584;28;51238;-52
2021/09/13 03:00:20;;;;;;;;;11.50;11.00;;;;;;;;4992838;28;51163;-51
2021/09/13 03:02:45;;;;;;;;;9.00;9.00;;;;;;;;4979538;28;51195;-51
2021/09/13 03:05:10;;;;;;;;;10.00;10.00;;;;;;;;4987905;28;51744;-53
2021/09/13 03:07:36;;;;;;;;;10.33;10.00;;;;;;;;4993917;28;51024;-51
2021/09/13 03:10:02;;;;;;;;;11.25;10.00;;;;;;;;4993208;28;51665;-54
2021/09/13 03:12:30;;;;;;;;;9.75;9.75;;;;;;;;4991799;28;51151;-53
2021/09/13 03:14:55;;;;;;;;;10.00;9.00;;;;;;;;4993215;28;50907;-53
2021/09/13 03:17:20;;;;;;;;;9.67;9.33;;;;;;;;4993810;28;50820;-53
2021/09/13 03:19:46;;;;;;;;;11.25;10.75;;;;;;;;4987567;28;52353;-53
2021/09/13 03:22:11;;;;;;;;;13.25;12.50;;;;;;;;4975021;28;51034;-54
2021/09/13 03:24:36;;;;;;;;;10.00;9.00;;;;;;;;4992590;28;51298;-54
2021/09/13 03:27:02;;;;;;;;;13.25;12.00;;;;;;;;4975889;28;51171;-54
2021/09/13 03:29:28;;;;;;;;;10.00;9.50;;;;;;;;4992988;28;51734;-54
2021/09/13 03:31:53;;;;;;;;;9.50;9.00;;;;;;;;4992451;28;51163;-54
2021/09/13 03:34:18;;;;;;;;;12.25;11.00;;;;;;;;4975371;28;51322;-53
2021/09/13 03:36:43;;;;;;;;;10.75;10.75;;;;;;;;4982420;28;51288;-54
2021/09/13 03:39:09;;;;;;;;;11.25;10.50;;;;;;;;4991828;28;52991;-54
2021/09/13 03:41:34;;;;;;;;;10.75;10.00;;;;;;;;4992978;28;51123;-53
2021/09/13 03:43:59;;;;;;;;;11.75;11.25;;;;;;;;4991567;28;51374;-55
2021/09/13 03:46:24;;;;;;;;;11.25;11.00;;;;;;;;4992143;28;51069;-53
2021/09/13 03:48:49;;;;;;;;;12.75;12.25;;;;;;;;4992059;28;51587;-54
2021/09/13 03:51:15;;;;;;;;;10.00;10.00;;;;;;;;4986852;28;50925;-54
2021/09/13 03:53:40;;;;;;;;;13.50;13.25;;;;;;;;4988579;28;51175;-52
2021/09/13 03:56:05;;;;;;;;;10.50;10.25;;;;;;;;4993070;28;51232;-53
2021/09/13 03:58:30;;;;;;;;;11.75;11.25;;;;;;;;4991799;28;52157;-53
2021/09/13 04:00:55;;;;;;;;;11.00;10.67;;;;;;;;4992493;28;50960;-53
2021/09/13 04:03:26;;;;;;;;;12.25;10.50;;;;;;;;4991843;28;51085;-53
2021/09/13 04:05:55;;;;;;;;;10.00;10.00;;;;;;;;4993119;28;51040;-53
2021/09/13 04:11:18;;;;;;;;;14.00;14.00;;;;;;;;4994322;28;51084;-53
2021/09/13 04:13:44;;;;;;;;;11.50;11.50;;;;;;;;4994449;28;51234;-53
2021/09/13 04:16:09;;;;;;;;;11.50;11.50;;;;;;;;4996096;28;51365;-54
2021/09/13 04:18:34;;;;;;;;;12.00;11.50;;;;;;;;4994969;28;51865;-54
2021/09/13 04:21:00;;;;;;;;;24.50;22.75;;;;;;;;4995955;28;50911;-53
2021/09/13 04:23:25;;;;;;;;;17.50;16.25;;;;;;;;4977391;28;51160;-53
2021/09/13 04:25:50;;;;;;;;;13.00;11.67;;;;;;;;4990635;28;51044;-50
2021/09/13 04:28:15;;;;;;;;;11.25;11.25;;;;;;;;4994857;28;51029;-54
2021/09/13 04:30:40;;;;;;;;;13.25;12.75;;;;;;;;4996011;28;51136;-53
2021/09/13 04:33:06;;;;;;;;;13.75;12.75;;;;;;;;4994881;28;51071;-51
2021/09/13 04:35:31;;;;;;;;;12.33;10.33;;;;;;;;4995703;28;50880;-55
2021/09/13 04:37:56;;;;;;;;;12.75;12.00;;;;;;;;4994337;28;51627;-52
2021/09/13 04:40:21;;;;;;;;;11.67;11.67;;;;;;;;4995172;28;51040;-54
2021/09/13 04:42:47;;;;;;;;;12.00;10.50;;;;;;;;4989559;28;50944;-51
2021/09/13 04:45:12;;;;;;;;;11.75;11.75;;;;;;;;4995084;28;50885;-53
2021/09/13 04:47:37;;;;;;;;;12.33;11.33;;;;;;;;4993874;28;52683;-53
2021/09/13 04:50:02;;;;;;;;;13.00;13.00;;;;;;;;4994314;28;51080;-53
2021/09/13 04:52:28;;;;;;;;;13.50;13.00;;;;;;;;4995604;28;50823;-52
2021/09/13 04:54:53;;;;;;;;;15.00;15.00;;;;;;;;4978227;28;51401;-53
2021/09/13 04:57:18;;;;;;;;;12.00;11.00;;;;;;;;4992992;28;51829;-52
2021/09/13 04:59:43;;;;;;;;;12.00;12.00;;;;;;;;4989726;28;51306;-54
2021/09/13 05:02:08;;;;;;;;;14.00;13.75;;;;;;;;4994654;28;51281;-54
2021/09/13 05:04:34;;;;;;;;;25.00;25.00;;;;;;;;4994724;28;51131;-54
2021/09/13 05:06:59;;;;;;;;;13.75;13.25;;;;;;;;4993104;28;51075;-55
2021/09/13 05:09:26;;;;;;;;;11.50;11.00;;;;;;;;4995338;28;50966;-52
2021/09/13 05:11:51;;;;;;;;;13.25;12.25;;;;;;;;4995235;28;51135;-53
2021/09/13 05:14:17;;;;;;;;;13.00;11.50;;;;;;;;4989488;28;51001;-53
2021/09/13 05:16:42;;;;;;;;;13.25;13.00;;;;;;;;4993634;28;51143;-53
2021/09/13 05:19:07;;;;;;;;;12.75;12.00;;;;;;;;4995070;28;51068;-54
2021/09/13 05:21:38;;;;;;;;;13.00;13.00;;;;;;;;4994204;28;51191;-53
2021/09/13 05:24:03;;;;;;;;;12.00;11.25;;;;;;;;4995364;28;50882;-54
2021/09/13 05:26:28;;;;;;;;;12.00;11.25;;;;;;;;4994769;28;51733;-54
2021/09/13 05:28:54;;;;;;;;;16.75;15.75;;;;;;;;4989407;28;51133;-54
2021/09/13 05:31:19;;;;;;;;;15.50;15.50;;;;;;;;4994709;28;51303;-50
2021/09/13 05:33:44;;;;;;;;;15.75;14.25;;;;;;;;4985782;28;51215;-52
2021/09/13 05:36:09;;;;;;;;;13.00;13.00;;;;;;;;4994226;28;51949;-53
2021/09/13 05:38:36;;;;;;;;;12.25;12.25;;;;;;;;4994660;28;51135;-54
2021/09/13 05:41:01;;;;;;;;;11.50;11.50;;;;;;;;4994724;28;51225;-49
2021/09/13 05:43:26;;;;;;;;;16.75;15.50;;;;;;;;4994969;28;51020;-52
2021/09/13 05:45:53;;;;;;;;;13.75;13.50;;;;;;;;4988080;28;51969;-52
2021/09/13 05:48:18;;;;;;;;;13.75;12.50;;;;;;;;4994686;28;51130;-55
2021/09/13 05:50:44;;;;;;;;;12.50;11.50;;;;;;;;4993593;28;50949;-53
2021/09/13 05:53:09;;;;;;;;;15.75;15.75;;;;;;;;4995186;28;51120;-54
2021/09/13 05:55:34;;;;;;;;;16.00;13.75;;;;;;;;4993621;28;51067;-58
2021/09/13 05:57:59;;;;;;;;;16.25;15.75;;;;;;;;4993969;28;51065;-53
2021/09/13 06:00:25;;;;;;;;;13.75;13.00;;;;;;;;4993927;28;50943;-52
2021/09/13 06:02:50;;;;;;;;;14.75;14.00;;;;;;;;4989169;28;53506;-52
2021/09/13 06:05:16;;;;;;;;;18.75;17.00;;;;;;;;4993770;28;51849;-53
2021/09/13 06:07:41;;;;;;;;;14.25;14.00;;;;;;;;4994625;28;50939;-54
2021/09/13 06:10:07;;;;;;;;;17.00;17.00;;;;;;;;4991478;28;51245;-54
2021/09/13 06:12:32;;;;;;;;;17.75;16.50;;;;;;;;4994306;28;51314;-53
2021/09/13 06:14:57;;;;;;;;;19.25;18.25;;;;;;;;4993735;28;51649;-55
2021/09/13 06:17:22;;;;;;;;;17.75;16.75;;;;;;;;4993926;28;50863;-55
2021/09/13 06:19:48;;;;;;;;;18.25;18.00;;;;;;;;4960848;28;51057;-54
2021/09/13 06:22:13;;;;;;;;;16.00;15.00;;;;;;;;4828225;28;53980;-54
2021/09/13 06:24:39;;;;;;;;;19.50;18.00;;;;;;;;4840202;28;59339;-54
2021/09/13 06:27:06;;;;;;;;;17.00;16.00;;;;;;;;4821271;28;54904;-54
2021/09/13 06:29:31;;;;;;;;;17.25;16.75;;;;;;;;4820730;28;57323;-52
2021/09/13 06:31:56;;;;;;;;;16.50;15.75;;;;;;;;4821260;28;59940;-53
2021/09/13 06:34:21;;;;;;;;;17.25;16.25;;;;;;;;4823187;28;57138;-55
2021/09/13 06:36:47;;;;;;;;;18.25;17.50;;;;;;;;4823184;28;59353;-53
2021/09/13 06:39:12;;;;;;;;;15.00;14.75;;;;;;;;4820942;28;56378;-55
2021/09/13 06:41:37;;;;;;;;;16.00;16.00;;;;;;;;4825373;28;52768;-55
2021/09/13 06:44:04;;;;;;;;;20.00;18.25;;;;;;;;4822615;28;59870;-57
2021/09/13 06:46:50;;;;;;;;;15.50;14.75;;;;;;;;4818116;28;57611;-53
2021/09/13 06:49:15;;;;;;;;;16.00;14.00;;;;;;;;4810091;28;60002;-54
2021/09/13 06:51:40;;;;;;;;;17.33;17.00;;;;;;;;4816793;28;54330;-53
2021/09/13 06:54:05;;;;;;;;;18.00;17.00;;;;;;;;4801795;28;54615;-54
2021/09/13 06:56:31;;;;;;;;;17.33;17.00;;;;;;;;4820808;28;57576;-53
2021/09/13 06:58:56;;;;;;;;;11.33;10.67;;;;;;;;4821257;28;54744;-53
2021/09/13 07:01:22;;;;;;;;;19.00;18.00;;;;;;;;4822164;28;51352;-51
2021/09/13 07:03:47;;;;;;;;;18.00;17.33;;;;;;;;4822583;28;60149;-53
2021/09/13 07:06:13;;;;;;;;;18.25;17.00;;;;;;;;4861334;28;51357;-50
2021/09/13 07:08:38;;;;;;;;;17.67;17.67;;;;;;;;4826974;28;54617;-53
2021/09/13 07:11:05;;;;;;;;;17.67;16.33;;;;;;;;4823509;28;57328;-53
2021/09/13 07:13:30;;;;;;;;;16.67;16.00;;;;;;;;4823435;28;51803;-52
2021/09/13 07:15:56;;;;;;;;;22.67;19.67;;;;;;;;4823931;28;57298;-53
2021/09/13 07:18:21;;;;;;;;;16.00;15.33;;;;;;;;4822603;28;54751;-54
2021/09/13 07:20:46;;;;;;;;;16.00;15.33;;;;;;;;4821813;28;54459;-54
2021/09/13 07:23:11;;;;;;;;;14.67;14.33;;;;;;;;4825062;28;57525;-50
2021/09/13 07:25:36;;;;;;;;;18.67;18.00;;;;;;;;4823206;28;57508;-53
2021/09/13 07:28:02;;;;;;;;;17.67;17.67;;;;;;;;4823647;28;57472;-52
2021/09/13 07:30:27;;;;;;;;;15.67;15.67;;;;;;;;4805776;28;57528;-53
2021/09/13 07:32:53;;;;;;;;;18.00;17.00;;;;;;;;4821853;28;54711;-51
2021/09/13 07:35:18;;;;;;;;;19.25;18.50;;;;;;;;4823645;28;55267;-54
2021/09/13 07:37:44;;;;;;;;;16.67;16.33;;;;;;;;4824611;28;51517;-49
2021/09/13 07:40:10;;;;;;;;;18.33;16.00;;;;;;;;4823690;28;54805;-51
2021/09/13 07:42:35;;;;;;;;;18.67;18.33;;;;;;;;4822218;28;54862;-50
2021/09/13 07:45:02;;;;;;;;;18.00;17.00;;;;;;;;4819618;28;59869;-51
2021/09/13 07:47:27;;;;;;;;;14.33;13.00;;;;;;;;4852771;28;57243;-53
2021/09/13 07:49:52;;;;;;;;;15.33;15.33;;;;;;;;4826380;28;51569;-55
2021/09/13 07:52:17;;;;;;;;;15.67;15.67;;;;;;;;4808742;28;54765;-52
2021/09/13 07:54:43;;;;;;;;;17.67;16.00;;;;;;;;4826471;28;54757;-54
2021/09/13 07:57:09;;;;;;;;;18.00;17.00;;;;;;;;4806147;28;57739;-50
2021/09/13 07:59:34;;;;;;;;;20.00;20.00;;;;;;;;4819872;28;55028;-54
2021/09/13 08:01:59;;;;;;;;;15.67;14.00;;;;;;;;4820623;28;57257;-55
2021/09/13 08:04:24;;;;;;;;;27.00;25.25;;;;;;;;4819432;28;57213;-54
2021/09/13 08:06:49;;;;;;;;;15.33;15.00;;;;;;;;4819844;28;52096;-51
2021/09/13 08:09:15;;;;;;;;;15.25;15.25;;;;;;;;4820766;28;55026;-50
2021/09/13 08:11:40;;;;;;;;;14.67;14.00;;;;;;;;4820260;28;57481;-51
2021/09/13 08:14:06;;;;;;;;;19.50;17.25;;;;;;;;4821303;28;54905;-53
2021/09/13 08:16:31;;;;;;;;;21.00;20.00;;;;;;;;4818665;28;57541;-54
2021/09/13 08:18:58;;;;;;;;;15.00;14.00;;;;;;;;4818813;28;57559;-52
2021/09/13 08:21:23;;;;;;;;;15.00;14.67;;;;;;;;4819849;28;60355;-54
2021/09/13 08:23:48;;;;;;;;;10.33;10.00;;;;;;;;4817548;28;51321;-52
2021/09/13 08:26:13;;;;;;;;;13.00;12.67;;;;;;;;4818019;28;54741;-54
2021/09/13 08:28:39;;;;;;;;;15.50;15.25;;;;;;;;4827824;28;54619;-54
2021/09/13 08:31:05;;;;;;;;;15.00;14.50;;;;;;;;4815232;28;60210;-54
2021/09/13 08:33:31;;;;;;;;;13.33;13.33;;;;;;;;4816922;28;51685;-53
2021/09/13 08:35:56;;;;;;;;;11.67;11.00;;;;;;;;4824173;28;57358;-53
2021/09/13 08:38:22;;;;;;;;;13.00;12.00;;;;;;;;4819129;28;51299;-51
2021/09/13 08:40:47;;;;;;;;;11.67;11.67;;;;;;;;4801690;28;57541;-53
2021/09/13 08:43:13;;;;;;;;;10.00;10.00;;;;;;;;4820802;28;59846;-51
2021/09/13 08:45:48;;;;;;;;;11.00;11.00;;;;;;;;4802428;28;57859;-53
2021/09/13 08:53:06;;;;;;;;;10.33;9.67;;;;;;;;4817363;28;53857;-53
2021/09/13 08:55:31;;;;;;;;;12.00;11.67;;;;;;;;4815598;28;57632;-54
2021/09/13 08:57:58;;;;;;;;;11.00;10.00;;;;;;;;4820553;28;51543;-54
2021/09/13 09:00:24;;;;;;;;;10.67;10.67;;;;;;;;4822684;28;54740;-53
2021/09/13 09:02:51;;;;;;;;;10.67;10.67;;;;;;;;4827540;28;51349;-51
2021/09/13 09:05:17;;;;;;;;;9.67;8.33;;;;;;;;4809585;28;57707;-53
2021/09/13 09:07:47;;;;;;;;;7.67;7.67;;;;;;;;4807070;28;57294;-55
2021/09/13 09:10:17;;;;;;;;;10.00;9.33;;;;;;;;4824055;28;60492;-52
2021/09/13 09:12:56;;;;;;;;;8.00;8.00;;;;;;;;4822467;28;54704;-53
2021/09/13 09:15:21;;;;;;;;;8.33;8.00;;;;;;;;4812500;28;51570;-50
2021/09/13 09:17:51;;;;;;;;;8.33;6.67;;;;;;;;4824356;28;60191;-53
2021/09/13 09:20:16;;;;;;;;;6.67;6.67;;;;;;;;4825683;28;57348;-53
2021/09/13 09:22:42;;;;;;;;;10.33;10.00;;;;;;;;4804070;28;54884;-50
2021/09/13 09:25:08;;;;;;;;;8.00;7.67;;;;;;;;4820284;28;53744;-54
2021/09/13 09:27:52;;;;;;;;;9.00;8.67;;;;;;;;4832213;28;54685;-52
2021/09/13 09:30:18;;;;;;;;;8.00;8.00;;;;;;;;4820134;28;54940;-52
2021/09/13 09:32:59;;;;;;;;;13.33;13.33;;;;;;;;4823397;28;57471;-56
2021/09/13 09:35:24;;;;;;;;;7.67;7.67;;;;;;;;4823861;28;57620;-53
2021/09/13 09:37:50;;;;;;;;;8.33;8.33;;;;;;;;4818061;28;54770;-52
2021/09/13 09:40:26;;;;;;;;;8.33;8.00;;;;;;;;4818310;28;57385;-53
2021/09/13 09:42:53;;;;;;;;;6.67;6.67;;;;;;;;4819894;28;51935;-51
2021/09/13 09:45:18;;;;;;;;;12.00;11.00;;;;;;;;4825697;28;53734;-52
2021/09/13 09:47:44;;;;;;;;;9.00;9.00;;;;;;;;4822143;28;54726;-54
2021/09/13 09:50:09;;;;;;;;;7.33;7.00;;;;;;;;4819171;28;57492;-51
2021/09/13 09:52:39;;;;;;;;;9.00;8.33;;;;;;;;4845585;28;51796;-51
2021/09/13 09:55:06;;;;;;;;;9.00;8.33;;;;;;;;4907277;28;54677;-49
2021/09/13 09:57:31;;;;;;;;;11.67;10.33;;;;;;;;4826821;28;57192;-53
2021/09/13 09:59:56;;;;;;;;;8.00;8.00;;;;;;;;4824536;28;57378;-54
2021/09/13 10:02:21;;;;;;;;;6.33;6.00;;;;;;;;4823200;28;57357;-53
2021/09/13 10:04:48;;;;;;;;;8.00;7.67;;;;;;;;4823631;28;54748;-52
2021/09/13 10:07:14;;;;;;;;;6.33;6.00;;;;;;;;4828742;28;56684;-53
2021/09/13 10:09:41;;;;;;;;;7.67;7.67;;;;;;;;4913993;28;51898;-53
2021/09/13 10:12:06;;;;;;;;;5.33;5.33;;;;;;;;4986605;28;51068;-54
2021/09/13 10:14:32;;;;;;;;;7.33;7.33;;;;;;;;4975223;28;51016;-54
2021/09/13 10:16:58;;;;;;;;;5.33;5.00;;;;;;;;4993701;28;51344;-53
2021/09/13 10:19:24;;;;;;;;;4.67;4.00;;;;;;;;4993039;28;51597;-54
2021/09/13 10:21:50;;;;;;;;;6.00;6.00;;;;;;;;4993045;28;51157;-53
2021/09/13 10:24:21;;;;;;;;;5.33;5.33;;;;;;;;4992520;28;51144;-52
2021/09/13 10:26:48;;;;;;;;;5.00;5.00;;;;;;;;4993038;28;50918;-54
2021/09/13 10:29:13;;;;;;;;;5.33;5.33;;;;;;;;4992957;28;51193;-51
2021/09/13 10:31:41;;;;;;;;;8.00;7.00;;;;;;;;4993159;28;51072;-51
2021/09/13 10:34:16;;;;;;;;;6.00;5.67;;;;;;;;4993562;28;51096;-51
2021/09/13 10:37:08;;;;;;;;;6.00;5.33;;;;;;;;4993049;28;51155;-54
2021/09/13 10:39:52;;;;;;;;;4.67;4.67;;;;;;;;4961818;28;51295;-53
2021/09/13 10:42:26;;;;;;;;;6.33;6.33;;;;;;;;4993011;28;51180;-53
2021/09/13 10:45:04;;;;;;;;;5.00;3.67;;;;;;;;4975018;28;51251;-53
2021/09/13 10:47:29;;;;;;;;;4.33;4.33;;;;;;;;4993024;28;51168;-54
2021/09/13 10:50:13;;;;;;;;;6.00;5.00;;;;;;;;4974792;28;53186;-58
2021/09/13 10:52:39;;;;;;;;;4.67;4.67;;;;;;;;4992579;28;50988;-58
2021/09/13 10:55:07;;;;;;;;;5.00;5.00;;;;;;;;4994395;28;51181;-58
2021/09/13 10:57:51;;;;;;;;;5.33;5.33;;;;;;;;4996073;28;51256;-58
2021/09/13 11:00:35;;;;;;;;;6.00;6.00;;;;;;;;4991982;28;52195;-59
2021/09/13 11:03:19;;;;;;;;;5.00;5.00;;;;;;;;4991934;28;50946;-58
2021/09/13 11:05:44;;;;;;;;;4.33;4.33;;;;;;;;4992530;28;51235;-58
2021/09/13 11:08:23;;;;;;;;;3.33;3.33;;;;;;;;4975120;28;50890;-58
2021/09/13 11:10:48;;;;;;;;;8.33;8.33;;;;;;;;4992188;28;51059;-57
2021/09/13 11:13:16;;;;;;;;;6.33;6.00;;;;;;;;4992557;28;51080;-59
2021/09/13 11:15:45;;;;;;;;;5.00;5.00;;;;;;;;4992253;28;51009;-57
2021/09/13 11:18:11;;;;;;;;;5.00;5.00;;;;;;;;4974845;28;51277;-59
2021/09/13 11:20:36;;;;;;;;;4.00;3.67;;;;;;;;4957144;28;53198;-57
2021/09/13 11:23:01;;;;;;;;;5.67;5.67;;;;;;;;4992447;28;51137;-58
2021/09/13 11:25:27;;;;;;;;;6.67;6.67;;;;;;;;4973859;28;51218;-58
2021/09/13 11:28:01;;;;;;;;;5.33;5.33;;;;;;;;4992554;28;50912;-57
2021/09/13 11:30:42;;;;;;;;;8.00;6.33;;;;;;;;4991651;28;52188;-57
2021/09/13 11:33:08;;;;;;;;;6.33;6.00;;;;;;;;4992037;28;51163;-59
2021/09/13 11:35:34;;;;;;;;;6.00;6.00;;;;;;;;4992299;28;51114;-59
2021/09/13 11:37:59;;;;;;;;;3.67;3.00;;;;;;;;4991817;28;51373;-59
2021/09/13 11:40:25;;;;;;;;;6.33;6.33;;;;;;;;4992340;28;51755;-59
2021/09/13 11:42:50;;;;;;;;;5.00;4.33;;;;;;;;4991946;28;51153;-59
2021/09/13 11:45:16;;;;;;;;;5.00;5.00;;;;;;;;4992175;28;50881;-59
2021/09/13 11:47:41;;;;;;;;;5.00;4.67;;;;;;;;4992526;28;51387;-61
2021/09/13 11:50:08;;;;;;;;;5.00;4.00;;;;;;;;4991917;28;50905;-57
2021/09/13 11:52:34;;;;;;;;;5.00;5.00;;;;;;;;4991832;28;51124;-57
2021/09/13 11:55:02;;;;;;;;;5.00;5.00;;;;;;;;4991858;28;51043;-57
2021/09/13 11:57:32;;;;;;;;;8.00;8.00;;;;;;;;4992068;28;51211;-58
2021/09/13 12:00:09;;;;;;;;;2.33;2.00;;;;;;;;4992154;28;50890;-58
2021/09/13 12:02:35;;;;;;;;;5.33;5.33;;;;;;;;4991482;28;50846;-59
2021/09/13 12:05:12;;;;;;;;;3.67;3.67;;;;;;;;4991986;28;51080;-58
2021/09/13 12:07:38;;;;;;;;;5.00;5.00;;;;;;;;4992136;28;51470;-58
2021/09/13 12:10:04;;;;;;;;;3.33;3.33;;;;;;;;4973691;28;53427;-58
2021/09/13 12:12:29;;;;;;;;;2.33;2.33;;;;;;;;4991773;28;50999;-59
2021/09/13 12:15:06;;;;;;;;;6.00;6.00;;;;;;;;4992497;28;50946;-58
2021/09/13 12:17:36;;;;;;;;;6.00;5.33;;;;;;;;4979428;28;50886;-58
2021/09/13 12:20:15;;;;;;;;;4.33;4.33;;;;;;;;4990519;28;51917;-58
2021/09/13 12:22:40;;;;;;;;;4.00;3.00;;;;;;;;4966126;28;51159;-57
2021/09/13 12:25:10;;;;;;;;;6.00;6.00;;;;;;;;4987589;28;50935;-58
2021/09/13 12:27:40;;;;;;;;;5.00;5.00;;;;;;;;4992139;28;50978;-58
2021/09/13 12:30:07;;;;;;;;;7.00;7.00;;;;;;;;4990814;28;54311;-58
2021/09/13 12:32:33;;;;;;;;;4.00;4.00;;;;;;;;4994008;28;51056;-57
2021/09/13 12:35:02;;;;;;;;;6.00;6.00;;;;;;;;4995094;28;51104;-59
2021/09/13 12:37:37;;;;;;;;;8.67;8.33;;;;;;;;4995483;28;51334;-58
2021/09/13 12:40:13;;;;;;;;;5.00;5.00;;;;;;;;4994597;28;51566;-58
2021/09/13 12:42:39;;;;;;;;;5.67;5.00;;;;;;;;4994468;28;51080;-61
2021/09/13 12:45:05;;;;;;;;;6.00;5.00;;;;;;;;4976800;28;51107;-59
2021/09/13 12:47:31;;;;;;;;;5.00;5.00;;;;;;;;4994968;28;51005;-58
2021/09/13 12:49:56;;;;;;;;;7.00;6.67;;;;;;;;4994117;28;51605;-58
2021/09/13 12:52:22;;;;;;;;;3.33;3.33;;;;;;;;4994833;28;51106;-58
2021/09/13 12:54:49;;;;;;;;;6.33;5.33;;;;;;;;4994712;28;51103;-58
2021/09/13 12:57:32;;;;;;;;;3.67;3.67;;;;;;;;4994989;28;50914;-58
2021/09/13 13:00:08;;;;;;;;;4.00;4.00;;;;;;;;4994534;28;51870;-57
2021/09/13 13:02:33;;;;;;;;;5.00;5.00;;;;;;;;4994670;28;50969;-59
2021/09/13 13:04:58;;;;;;;;;4.00;3.33;;;;;;;;4994950;28;50999;-57
2021/09/13 13:07:24;;;;;;;;;5.67;5.33;;;;;;;;4995049;28;51351;-59
2021/09/13 13:09:49;;;;;;;;;4.00;4.00;;;;;;;;4976612;28;52846;-58
2021/09/13 13:12:14;;;;;;;;;6.00;6.00;;;;;;;;4994387;28;50866;-59
2021/09/13 13:14:39;;;;;;;;;10.33;10.33;;;;;;;;4994620;28;50885;-58
2021/09/13 13:17:04;;;;;;;;;4.33;4.33;;;;;;;;4994560;28;51078;-58
2021/09/13 13:19:30;;;;;;;;;3.33;3.33;;;;;;;;4994106;28;51280;-58
2021/09/13 13:21:55;;;;;;;;;4.33;4.33;;;;;;;;4994022;28;50850;-58
2021/09/13 13:24:21;;;;;;;;;5.33;5.33;;;;;;;;4994139;28;50968;-57
2021/09/13 13:26:48;;;;;;;;;5.00;5.00;;;;;;;;4994236;28;51053;-58
2021/09/13 13:29:13;;;;;;;;;4.67;4.67;;;;;;;;4976451;28;51163;-58
2021/09/13 13:31:39;;;;;;;;;4.33;4.33;;;;;;;;4994127;28;51125;-59
2021/09/13 13:34:05;;;;;;;;;6.33;6.33;;;;;;;;4994461;28;51173;-59
2021/09/13 13:36:30;;;;;;;;;5.67;5.67;;;;;;;;4993557;28;50882;-57
2021/09/13 13:38:55;;;;;;;;;5.00;5.00;;;;;;;;4982613;28;52750;-58
2021/09/13 13:41:21;;;;;;;;;6.33;5.33;;;;;;;;4993825;28;50834;-58
2021/09/13 13:43:46;;;;;;;;;5.33;5.33;;;;;;;;4993942;28;51008;-58
2021/09/13 13:46:12;;;;;;;;;6.67;6.67;;;;;;;;4991070;28;51303;-59
2021/09/13 13:48:37;;;;;;;;;7.00;7.00;;;;;;;;4993489;28;51855;-60
2021/09/13 13:51:02;;;;;;;;;7.00;7.00;;;;;;;;4993286;28;50963;-59
2021/09/13 13:53:28;;;;;;;;;4.33;4.33;;;;;;;;4993721;28;50891;-59
2021/09/13 13:55:53;;;;;;;;;6.00;6.00;;;;;;;;4993977;28;50894;-59
2021/09/13 13:58:18;;;;;;;;;6.00;5.33;;;;;;;;4993385;28;50971;-58
2021/09/13 14:00:44;;;;;;;;;4.33;4.00;;;;;;;;4993661;28;50834;-58
2021/09/13 14:03:12;;;;;;;;;2.00;2.00;;;;;;;;4992832;28;50997;-58
2021/09/13 14:05:37;;;;;;;;;5.00;4.67;;;;;;;;4992182;28;51017;-59
2021/09/13 14:08:02;;;;;;;;;3.67;3.67;;;;;;;;4993479;28;51174;-56
2021/09/13 14:10:28;;;;;;;;;4.67;4.67;;;;;;;;4993362;28;51113;-58
2021/09/13 14:12:53;;;;;;;;;6.67;6.00;;;;;;;;4993620;28;50992;-60
2021/09/13 14:15:19;;;;;;;;;5.00;4.33;;;;;;;;4993319;28;51276;-61
2021/09/13 14:17:44;;;;;;;;;4.67;4.67;;;;;;;;4993247;28;51827;-61
2021/09/13 14:20:10;;;;;;;;;3.00;3.00;;;;;;;;4993277;28;51160;-64
2021/09/13 14:22:35;;;;;;;;;5.33;5.33;;;;;;;;4993361;28;51265;-60
2021/09/13 14:25:00;;;;;;;;;5.00;5.00;;;;;;;;4993228;28;50885;-60
2021/09/13 14:27:26;;;;;;;;;3.00;3.00;;;;;;;;4993212;28;50997;-60
2021/09/13 14:29:51;;;;;;;;;5.00;5.00;;;;;;;;4992872;28;50940;-59
2021/09/13 14:32:17;;;;;;;;;5.00;5.00;;;;;;;;4993008;28;51385;-62
2021/09/13 14:34:42;;;;;;;;;6.00;6.00;;;;;;;;4993068;28;51383;-61